Time;durP1;ratioP1;P1;durP2;ratioP2;P2;SDS_P1;SDS_P2;PMS_P1;PMS_P2;Temp;Humidity;BMP_temperature;BMP_pressure;BME280_temperature;BME280_humidity;BME280_pressure;Samples;Min_cycle;Max_cycle;Signal;HPM_P1;HPM_P2
2021/05/01 00:02:14;;;;;;;11.27;9.25;;;;;;;8.80;69.91;100434.91;5022488;28;20034;-76
2021/05/01 00:04:39;;;;;;;12.90;9.80;;;;;;;8.85;69.26;100431.38;5024911;28;20128;-76
2021/05/01 00:07:05;;;;;;;12.32;9.18;;;;;;;8.88;69.69;100441.03;5024049;28;20048;-76
2021/05/01 00:09:30;;;;;;;11.15;8.77;;;;;;;8.91;69.01;100441.06;5022531;28;20259;-77
2021/05/01 00:11:56;;;;;;;13.57;10.93;;;;;;;8.92;69.41;100440.19;5024223;28;20080;-76
2021/05/01 00:14:25;;;;;;;13.35;10.23;;;;;;;8.94;69.25;100451.59;5024131;28;20098;-77
2021/05/01 00:16:50;;;;;;;12.35;9.02;;;;;;;8.92;69.68;100445.44;5022537;28;20034;-77
2021/05/01 00:19:15;;;;;;;11.02;8.82;;;;;;;8.92;69.23;100442.81;5022960;28;20073;-77
2021/05/01 00:21:41;;;;;;;12.30;9.25;;;;;;;8.92;69.31;100448.94;5024404;28;20029;-77
2021/05/01 00:24:07;;;;;;;13.85;10.30;;;;;;;8.91;69.64;100447.19;5023016;28;20038;-77
2021/05/01 00:26:32;;;;;;;12.55;8.82;;;;;;;8.95;69.70;100455.97;5022691;28;20049;-77
2021/05/01 00:28:57;;;;;;;12.02;9.45;;;;;;;8.94;69.85;100443.69;5024452;28;20041;-77
2021/05/01 00:31:23;;;;;;;12.73;9.43;;;;;;;8.92;70.14;100442.81;5022880;28;20038;-76
2021/05/01 00:33:48;;;;;;;10.88;8.77;;;;;;;8.87;69.89;100442.81;5021993;28;20053;-77
2021/05/01 00:36:13;;;;;;;12.13;9.52;;;;;;;8.89;69.85;100440.19;5024375;28;20144;-76
2021/05/01 00:38:39;;;;;;;14.80;10.77;;;;;;;8.90;70.28;100440.16;5023481;28;20037;-76
2021/05/01 00:41:04;;;;;;;14.65;11.45;;;;;;;8.93;69.62;100440.19;5021952;28;20037;-77
2021/05/01 00:43:30;;;;;;;16.02;11.13;;;;;;;9.01;70.20;100448.03;5022656;28;20064;-77
2021/05/01 00:45:55;;;;;;;13.82;10.73;;;;;;;9.04;69.59;100445.44;5024031;28;20025;-77
2021/05/01 00:48:21;;;;;;;12.55;9.70;;;;;;;9.05;69.80;100435.78;5037143;28;20501;-76
2021/05/01 00:50:46;;;;;;;12.93;9.40;;;;;;;8.97;70.10;100420.84;5023315;28;20041;-77
2021/05/01 00:53:13;;;;;;;12.45;9.70;;;;;;;8.96;70.02;100418.22;5023732;28;20041;-77
2021/05/01 00:55:41;;;;;;;12.38;9.77;;;;;;;8.97;69.87;100414.72;5022434;28;20523;-77
2021/05/01 00:58:07;;;;;;;13.80;10.05;;;;;;;8.94;70.18;100398.94;5021820;28;20030;-77
2021/05/01 01:00:47;;;;;;;12.85;10.25;;;;;;;8.87;70.30;100405.97;5020448;28;20038;-77
2021/05/01 01:03:12;;;;;;;15.35;10.52;;;;;;;8.87;70.31;100408.59;5021557;28;20091;-77
2021/05/01 01:05:38;;;;;;;12.82;9.95;;;;;;;8.88;69.99;100414.72;5021710;28;20041;-77
2021/05/01 01:08:03;;;;;;;15.43;11.98;;;;;;;8.90;69.87;100418.22;5022618;28;20467;-76
2021/05/01 01:10:29;;;;;;;15.13;12.15;;;;;;;8.92;69.95;100414.72;5021778;28;20088;-77
2021/05/01 01:12:54;;;;;;;12.55;9.40;;;;;;;8.96;70.18;100410.31;5020555;28;20482;-77
2021/05/01 01:15:27;;;;;;;12.98;9.15;;;;;;;8.95;69.98;100413.84;5023800;28;20124;-77
2021/05/01 01:17:53;;;;;;;14.02;10.50;;;;;;;8.94;70.29;100420.88;5023186;28;20053;-77
2021/05/01 01:20:19;;;;;;;13.65;9.23;;;;;;;8.89;70.34;100413.88;5019890;28;20038;-77
2021/05/01 01:22:44;;;;;;;17.83;13.07;;;;;;;8.87;70.80;100427.00;5021357;28;20033;-77
2021/05/01 01:25:10;;;;;;;16.17;11.43;;;;;;;8.85;70.78;100417.38;5023451;28;20485;-77
2021/05/01 01:27:36;;;;;;;13.05;10.40;;;;;;;8.79;71.24;100410.34;5021277;28;20030;-76
2021/05/01 01:30:04;;;;;;;11.18;8.65;;;;;;;8.76;71.12;100408.59;5022092;28;20041;-76
2021/05/01 01:32:29;;;;;;;12.45;10.43;;;;;;;8.75;70.83;100412.13;5023172;28;20041;-77
2021/05/01 01:34:55;;;;;;;14.38;9.48;;;;;;;8.73;70.72;100418.25;5025797;28;20087;-77
2021/05/01 01:37:21;;;;;;;12.20;8.90;;;;;;;8.76;71.27;100426.16;5024567;28;20237;-77
2021/05/01 01:39:46;;;;;;;14.50;11.25;;;;;;;8.67;70.90;100420.88;5021045;28;20037;-76
2021/05/01 01:42:11;;;;;;;17.15;13.00;;;;;;;8.63;70.99;100427.91;5021360;28;20045;-77
2021/05/01 01:44:36;;;;;;;15.95;11.40;;;;;;;8.65;71.32;100418.25;5023077;28;20048;-77
2021/05/01 01:47:02;;;;;;;15.38;11.23;;;;;;;8.61;71.37;100419.13;5021442;28;20068;-75
2021/05/01 01:49:27;;;;;;;11.57;9.40;;;;;;;8.59;71.44;100420.88;5021025;28;20095;-77
2021/05/01 01:51:52;;;;;;;14.40;10.60;;;;;;;8.60;71.49;100424.41;5022707;28;20041;-77
2021/05/01 01:54:18;;;;;;;14.23;10.80;;;;;;;8.60;71.53;100420.03;5016956;28;20160;-77
2021/05/01 01:56:43;;;;;;;17.33;12.27;;;;;;;8.61;71.63;100420.88;5022950;28;20060;-76
2021/05/01 01:59:09;;;;;;;17.60;13.00;;;;;;;8.68;71.12;100433.16;5020669;28;20497;-77
2021/05/01 02:01:34;;;;;;;15.50;11.25;;;;;;;8.70;71.35;100424.41;5021264;28;20038;-77
2021/05/01 02:04:00;;;;;;;13.40;10.48;;;;;;;8.72;71.08;100419.13;5021281;28;20682;-77
2021/05/01 02:06:25;;;;;;;17.73;12.52;;;;;;;8.71;71.50;100418.25;5024078;28;20041;-76
2021/05/01 02:08:51;;;;;;;21.63;15.02;;;;;;;8.72;71.21;100412.13;5020661;28;20108;-76
2021/05/01 02:11:16;;;;;;;18.50;12.13;;;;;;;8.70;71.70;100410.38;5022488;28;20390;-76
2021/05/01 02:13:42;;;;;;;14.45;11.25;;;;;;;8.64;71.39;100407.72;5021464;28;20038;-77
2021/05/01 02:16:08;;;;;;;12.43;10.45;;;;;;;8.58;71.59;100405.97;5019228;28;20044;-77
2021/05/01 02:18:34;;;;;;;12.88;10.23;;;;;;;8.48;71.71;100409.47;5022107;28;20033;-76
2021/05/01 02:20:59;;;;;;;15.48;11.35;;;;;;;8.32;72.58;100414.69;5021033;28;20040;-76
2021/05/01 02:23:25;;;;;;;14.95;10.50;;;;;;;8.27;72.08;100416.44;5018816;28;20036;-76
2021/05/01 02:25:50;;;;;;;13.55;10.10;;;;;;;8.25;72.40;100412.94;5026048;28;20390;-77
2021/05/01 02:28:18;;;;;;;14.75;9.65;;;;;;;8.22;72.59;100412.91;5022887;28;20072;-77
2021/05/01 02:30:43;;;;;;;13.75;10.65;;;;;;;8.21;72.87;100411.19;5023243;28;20053;-76
2021/05/01 02:33:09;;;;;;;19.80;14.48;;;;;;;8.23;73.30;100408.56;5020247;28;20026;-76
2021/05/01 02:35:36;;;;;;;15.25;11.52;;;;;;;8.26;72.79;100412.06;5022507;28;20045;-77
2021/05/01 02:38:02;;;;;;;14.50;11.65;;;;;;;8.24;73.14;100411.19;5021218;28;20422;-75
2021/05/01 02:40:31;;;;;;;12.40;10.40;;;;;;;8.19;73.33;100420.81;5020047;28;20045;-77
2021/05/01 02:43:00;;;;;;;12.55;10.07;;;;;;;8.20;72.92;100419.06;5021274;28;20030;-77
2021/05/01 02:45:25;;;;;;;16.08;12.30;;;;;;;8.19;72.98;100414.69;5022288;28;20037;-77
2021/05/01 02:47:50;;;;;;;12.25;9.55;;;;;;;8.17;72.91;100406.78;5020212;28;20548;-76
2021/05/01 02:50:16;;;;;;;10.75;9.10;;;;;;;8.15;73.27;100405.03;5020649;28;20030;-77
2021/05/01 02:52:42;;;;;;;14.43;11.57;;;;;;;8.13;73.73;100397.16;5021951;28;20455;-76
2021/05/01 02:55:09;;;;;;;15.65;12.30;;;;;;;8.11;73.89;100405.03;5020938;28;20053;-77
2021/05/01 02:57:34;;;;;;;14.18;10.73;;;;;;;8.02;74.55;100393.63;5019939;28;20040;-77
2021/05/01 03:00:02;;;;;;;12.75;9.88;;;;;;;8.04;74.25;100394.50;5022058;28;20033;-76
2021/05/01 03:02:29;;;;;;;12.52;9.45;;;;;;;8.06;73.74;100385.72;5021778;28;20032;-76
2021/05/01 03:04:55;;;;;;;15.13;10.27;;;;;;;8.07;74.02;100387.50;5019905;28;20080;-77
2021/05/01 03:07:21;;;;;;;14.85;10.40;;;;;;;8.03;73.60;100379.59;5022553;28;20373;-77
2021/05/01 03:09:46;;;;;;;15.55;11.93;;;;;;;8.08;74.12;100380.50;5024854;28;20060;-77
2021/05/01 03:12:12;;;;;;;13.80;9.60;;;;;;;8.15;73.49;100374.38;5019243;28;20502;-76
2021/05/01 03:14:37;;;;;;;15.60;11.05;;;;;;;8.15;73.78;100379.63;5024093;28;20050;-77
2021/05/01 03:17:02;;;;;;;12.13;10.07;;;;;;;8.09;73.56;100376.97;5023377;28;20052;-77
2021/05/01 03:19:28;;;;;;;12.85;9.63;;;;;;;8.15;73.63;100378.72;5024569;28;20472;-77
2021/05/01 03:21:53;;;;;;;12.35;9.13;;;;;;;8.13;73.39;100384.00;5027628;28;20150;-77
2021/05/01 03:24:18;;;;;;;13.40;10.55;;;;;;;8.10;73.84;100386.63;5025480;28;20378;-77
2021/05/01 03:26:44;;;;;;;12.50;9.40;;;;;;;8.08;73.54;100394.50;5024560;28;20417;-77
2021/05/01 03:29:09;;;;;;;14.70;11.05;;;;;;;8.03;73.40;100396.25;5023096;28;20048;-77
2021/05/01 03:31:34;;;;;;;14.90;10.48;;;;;;;7.95;73.91;100402.38;5024597;28;20022;-75
2021/05/01 03:34:00;;;;;;;12.27;10.52;;;;;;;7.96;74.07;100401.47;5025066;28;20548;-77
2021/05/01 03:36:25;;;;;;;14.10;9.85;;;;;;;7.96;74.02;100409.38;5023163;28;20049;-77
2021/05/01 03:38:50;;;;;;;14.48;10.77;;;;;;;8.01;74.27;100402.38;5024444;28;20592;-75
2021/05/01 03:41:16;;;;;;;13.88;9.90;;;;;;;8.08;74.14;100404.16;5025108;28;20048;-77
2021/05/01 03:43:41;;;;;;;12.07;9.25;;;;;;;8.11;74.06;100404.16;5022508;28;20033;-77
2021/05/01 03:46:06;;;;;;;11.65;9.60;;;;;;;8.19;73.47;100406.78;5025241;28;20038;-76
2021/05/01 03:48:32;;;;;;;11.15;9.27;;;;;;;8.19;73.61;100401.53;5025032;28;20132;-77
2021/05/01 03:50:57;;;;;;;13.25;10.00;;;;;;;8.18;73.91;100394.53;5022099;28;20136;-76
2021/05/01 03:53:22;;;;;;;15.35;11.77;;;;;;;8.25;73.67;100396.28;5022983;28;20076;-76
2021/05/01 03:55:49;;;;;;;13.60;11.00;;;;;;;8.33;73.59;100405.03;5023645;28;20124;-77
2021/05/01 03:58:15;;;;;;;13.82;10.07;;;;;;;8.37;73.14;100411.22;5023561;28;20121;-77
2021/05/01 04:00:40;;;;;;;12.57;9.73;;;;;;;8.33;73.31;100411.22;5022615;28;20116;-76
2021/05/01 04:03:05;;;;;;;12.00;9.43;;;;;;;8.23;73.40;100404.19;5023223;28;20547;-77
2021/05/01 04:05:31;;;;;;;13.80;10.63;;;;;;;8.22;73.53;100405.03;5019719;28;20410;-77
2021/05/01 04:07:56;;;;;;;12.23;9.65;;;;;;;8.19;73.67;100409.41;5023640;28;20086;-77
2021/05/01 04:10:22;;;;;;;18.52;13.10;;;;;;;8.17;73.68;100404.16;5023512;28;20045;-77
2021/05/01 04:12:47;;;;;;;14.70;11.43;;;;;;;8.17;73.87;100404.16;5022292;28;20037;-77
2021/05/01 04:15:13;;;;;;;13.15;10.00;;;;;;;8.22;73.48;100394.53;5024694;28;20037;-77
2021/05/01 04:17:38;;;;;;;12.73;9.35;;;;;;;8.25;73.85;100402.44;5023411;28;20033;-77
2021/05/01 04:20:05;;;;;;;11.63;9.73;;;;;;;8.31;73.34;100412.94;5022272;28;20052;-77
2021/05/01 04:22:31;;;;;;;17.17;13.77;;;;;;;8.37;73.74;100405.94;5023974;28;20057;-77
2021/05/01 04:24:56;;;;;;;16.33;13.10;;;;;;;8.42;73.42;100404.22;5024317;28;20060;-78
2021/05/01 04:27:22;;;;;;;14.10;10.80;;;;;;;8.47;73.39;100405.09;5022175;28;20608;-78
2021/05/01 04:29:47;;;;;;;14.48;11.27;;;;;;;8.54;73.06;100404.22;5021996;28;20099;-78
2021/05/01 04:32:12;;;;;;;13.00;9.07;;;;;;;8.60;72.91;100408.63;5024336;28;20121;-78
2021/05/01 04:34:38;;;;;;;12.02;9.02;;;;;;;8.66;72.91;100413.88;5017841;28;20113;-78
2021/05/01 04:37:03;;;;;;;16.83;10.38;;;;;;;8.68;73.02;100418.25;5026799;28;20432;-78
2021/05/01 04:39:29;;;;;;;14.52;10.88;;;;;;;8.68;72.48;100418.25;5021718;28;20395;-78
2021/05/01 04:41:54;;;;;;;14.45;11.00;;;;;;;8.66;73.06;100414.75;5023228;28;20036;-79
2021/05/01 04:44:21;;;;;;;14.73;9.88;;;;;;;8.68;72.96;100430.53;5038965;28;20041;-78
2021/05/01 04:46:51;;;;;;;12.25;9.18;;;;;;;8.75;72.84;100424.38;5021605;28;20037;-79
2021/05/01 04:49:17;;;;;;;12.25;9.77;;;;;;;8.77;72.67;100426.13;5022006;28;20454;-78
2021/05/01 04:51:42;;;;;;;12.10;10.30;;;;;;;8.77;72.56;100423.50;5023470;28;20069;-78
2021/05/01 04:54:07;;;;;;;15.68;12.15;;;;;;;8.78;72.85;100420.00;5018020;28;20073;-78
2021/05/01 04:56:33;;;;;;;12.73;10.10;;;;;;;8.83;72.45;100424.38;5023846;28;20040;-78
2021/05/01 04:58:58;;;;;;;12.43;9.27;;;;;;;8.85;72.28;100415.59;5021418;28;20038;-78
2021/05/01 05:01:24;;;;;;;10.10;8.35;;;;;;;8.94;72.43;100414.75;5021862;28;20037;-78
2021/05/01 05:03:49;;;;;;;11.25;9.20;;;;;;;9.06;71.85;100429.63;5023767;28;20040;-77
2021/05/01 05:06:14;;;;;;;12.23;9.18;;;;;;;9.10;71.46;100442.78;5021960;28;20052;-77
2021/05/01 05:08:40;;;;;;;18.95;13.60;;;;;;;8.99;71.77;100452.47;5021446;28;20033;-77
2021/05/01 05:11:05;;;;;;;15.13;10.95;;;;;;;9.04;71.73;100447.16;5023502;28;20112;-78
2021/05/01 05:13:30;;;;;;;10.52;8.95;;;;;;;9.04;71.58;100441.91;5021951;28;20242;-78
2021/05/01 05:15:56;;;;;;;11.80;9.50;;;;;;;9.03;71.84;100451.56;5021047;28;20042;-78
2021/05/01 05:18:23;;;;;;;11.90;9.52;;;;;;;9.09;71.76;100454.22;5023014;28;20037;-77
2021/05/01 05:20:48;;;;;;;12.05;9.05;;;;;;;9.14;71.83;100449.81;5018392;28;20117;-77
2021/05/01 05:23:13;;;;;;;15.13;11.52;;;;;;;9.16;71.27;100441.91;5022891;28;20125;-78
2021/05/01 05:25:39;;;;;;;14.70;11.25;;;;;;;9.29;71.20;100433.09;5021810;28;20120;-78
2021/05/01 05:28:04;;;;;;;11.15;8.40;;;;;;;9.42;70.62;100429.53;5020895;28;20123;-78
2021/05/01 05:30:29;;;;;;;11.63;8.85;;;;;;;9.58;69.97;100429.47;5022375;28;20455;-78
2021/05/01 05:32:56;;;;;;;11.02;8.70;;;;;;;9.69;70.02;100434.72;5021595;28;20033;-78
2021/05/01 05:35:21;;;;;;;12.35;9.95;;;;;;;9.83;69.83;100430.28;5020626;28;20573;-78
2021/05/01 05:37:46;;;;;;;15.45;11.15;;;;;;;9.87;69.62;100418.81;5022422;28;20116;-77
2021/05/01 05:40:12;;;;;;;17.23;12.35;;;;;;;9.85;69.54;100417.94;5018020;28;20117;-77
2021/05/01 05:42:38;;;;;;;12.70;9.95;;;;;;;9.87;69.35;100416.19;5037877;28;20037;-78
2021/05/01 05:45:05;;;;;;;10.90;8.98;;;;;;;9.92;69.39;100417.03;5021627;28;20037;-78
2021/05/01 05:47:30;;;;;;;13.40;8.82;;;;;;;9.96;69.41;100421.41;5020399;28;21314;-77
2021/05/01 05:49:56;;;;;;;12.48;8.43;;;;;;;9.97;69.08;100431.06;5022267;28;20057;-78
2021/05/01 05:52:21;;;;;;;13.82;10.32;;;;;;;10.02;68.84;100437.19;5021881;28;20392;-78
2021/05/01 05:54:46;;;;;;;19.35;14.35;;;;;;;10.04;68.81;100435.44;5019175;28;20038;-78
2021/05/01 05:57:12;;;;;;;12.27;10.38;;;;;;;10.07;68.48;100435.41;5021847;28;20091;-77
2021/05/01 05:59:38;;;;;;;11.77;9.02;;;;;;;10.12;68.76;100435.38;5022529;28;20045;-78
2021/05/01 06:02:08;;;;;;;11.13;9.23;;;;;;;10.13;68.42;100433.63;5019258;28;20042;-78
2021/05/01 06:04:41;;;;;;;11.45;9.18;;;;;;;10.22;67.84;100444.13;5020509;28;20069;-78
2021/05/01 06:07:11;;;;;;;14.90;10.88;;;;;;;10.20;68.02;100446.75;5021009;28;20041;-78
2021/05/01 06:09:40;;;;;;;14.93;12.15;;;;;;;10.24;68.04;100437.97;5020385;28;20033;-78
2021/05/01 06:12:09;;;;;;;14.50;11.15;;;;;;;10.23;68.48;100435.31;5021206;28;20399;-78
2021/05/01 06:14:37;;;;;;;12.73;9.73;;;;;;;10.25;68.34;100444.97;5018376;28;20034;-77
2021/05/01 06:17:03;;;;;;;10.68;8.90;;;;;;;10.35;67.59;100440.56;5021433;28;20523;-78
2021/05/01 06:19:30;;;;;;;13.05;8.88;;;;;;;10.43;67.41;100443.16;5024635;28;20045;-77
2021/05/01 06:21:55;;;;;;;15.38;11.90;;;;;;;10.39;67.44;100436.13;5020134;28;20083;-78
2021/05/01 06:24:21;;;;;;;14.93;11.95;;;;;;;10.44;67.90;100432.56;5020660;28;20124;-78
2021/05/01 06:26:46;;;;;;;15.23;10.57;;;;;;;10.43;67.25;100427.31;5022314;28;20041;-78
2021/05/01 06:29:12;;;;;;;11.98;9.63;;;;;;;10.46;67.47;100428.16;5020802;28;20034;-78
2021/05/01 06:31:38;;;;;;;15.32;11.30;;;;;;;10.50;67.40;100429.00;5019734;28;20033;-77
2021/05/01 06:34:04;;;;;;;14.77;11.93;;;;;;;10.63;66.69;100430.66;5020092;28;20040;-77
2021/05/01 06:36:31;;;;;;;17.23;12.40;;;;;;;10.75;66.79;100435.84;5020642;28;20176;-78
2021/05/01 06:39:01;;;;;;;16.20;13.10;;;;;;;10.85;66.23;100425.22;5022170;28;20034;-78
2021/05/01 06:41:33;;;;;;;14.57;11.43;;;;;;;11.08;65.27;100435.53;5021329;28;20057;-78
2021/05/01 06:44:03;;;;;;;12.53;10.30;;;;;;;11.27;65.26;100439.75;5024041;28;20069;-77
2021/05/01 06:46:33;;;;;;;12.57;9.57;;;;;;;11.52;64.13;100426.28;5039394;28;20277;-78
2021/05/01 06:49:02;;;;;;;13.43;10.68;;;;;;;11.66;63.57;100426.09;5024170;28;20038;-78
2021/05/01 06:51:29;;;;;;;14.35;11.07;;;;;;;11.61;63.36;100428.81;5022248;28;20037;-78
2021/05/01 06:53:59;;;;;;;16.77;13.40;;;;;;;11.65;63.14;100430.50;5025583;28;20052;-78
2021/05/01 06:56:26;;;;;;;13.73;11.45;;;;;;;11.74;63.50;100422.47;5025995;28;20033;-77
2021/05/01 06:58:52;;;;;;;13.23;10.75;;;;;;;11.86;63.24;100429.41;5023727;28;20060;-78
2021/05/01 07:01:18;;;;;;;12.52;9.75;;;;;;;12.04;62.93;100433.56;5039321;28;20401;-78
2021/05/01 07:03:47;;;;;;;14.50;9.90;;;;;;;11.98;61.81;100438.97;5025718;28;20033;-78
2021/05/01 07:06:15;;;;;;;14.10;11.57;;;;;;;11.86;62.61;100424.13;5023590;28;20041;-78
2021/05/01 07:08:41;;;;;;;15.40;11.57;;;;;;;11.82;62.74;100431.19;5023242;28;20069;-78
2021/05/01 07:11:07;;;;;;;14.68;11.30;;;;;;;11.72;62.25;100432.19;5024755;28;20030;-77
2021/05/01 07:13:33;;;;;;;12.68;9.43;;;;;;;11.48;63.09;100424.56;5025312;28;20037;-78
2021/05/01 07:16:03;;;;;;;12.30;9.98;;;;;;;11.41;63.47;100427.25;5023491;28;20033;-77
2021/05/01 07:18:29;;;;;;;11.45;9.70;;;;;;;11.35;63.08;100422.06;5022068;28;20056;-78
2021/05/01 07:21:01;;;;;;;14.27;11.25;;;;;;;11.25;63.43;100420.41;5023211;28;20100;-78
2021/05/01 07:23:27;;;;;;;17.48;12.00;;;;;;;11.26;63.35;100416.88;5023029;28;20044;-78
2021/05/01 07:25:52;;;;;;;13.85;10.77;;;;;;;11.39;62.82;100422.88;5023161;28;20153;-78
2021/05/01 07:28:26;;;;;;;13.07;10.10;;;;;;;11.35;62.49;100421.19;5023913;28;20092;-78
2021/05/01 07:30:56;;;;;;;12.82;8.85;;;;;;;11.47;63.26;100425.44;5023419;28;20084;-78
2021/05/01 07:33:31;;;;;;;12.48;9.73;;;;;;;11.48;62.45;100436.00;5022624;28;20041;-78
2021/05/01 07:36:02;;;;;;;14.02;10.27;;;;;;;11.44;63.54;100429.00;5023098;28;20141;-77
2021/05/01 07:38:31;;;;;;;14.35;11.20;;;;;;;11.54;63.64;100428.00;5023078;28;20072;-78
2021/05/01 07:41:00;;;;;;;13.57;11.02;;;;;;;11.70;62.68;100423.41;5023542;28;20490;-78
2021/05/01 07:43:29;;;;;;;11.90;10.13;;;;;;;11.65;61.76;100419.94;5041407;28;20030;-78
2021/05/01 07:45:57;;;;;;;13.43;10.00;;;;;;;11.49;61.92;100421.03;5022057;28;20045;-77
2021/05/01 07:48:27;;;;;;;17.63;9.43;;;;;;;11.40;62.99;100425.53;5024978;28;20516;-78
2021/05/01 07:50:54;;;;;;;14.13;9.90;;;;;;;11.57;62.92;100416.53;5024475;28;20042;-78
2021/05/01 07:53:20;;;;;;;11.52;9.70;;;;;;;11.72;62.32;100428.69;5021818;28;20044;-78
2021/05/01 07:55:45;;;;;;;10.57;9.48;;;;;;;11.62;61.34;100419.97;5023792;28;20042;-77
2021/05/01 07:58:10;;;;;;;12.23;9.07;;;;;;;11.46;61.33;100424.56;5024707;28;20099;-78
2021/05/01 08:00:36;;;;;;;11.15;9.10;;;;;;;11.41;61.70;100421.97;5022692;28;20042;-77
2021/05/01 08:03:02;;;;;;;10.10;8.70;;;;;;;11.62;60.88;100427.91;5022795;28;20056;-77
2021/05/01 08:05:28;;;;;;;11.65;8.10;;;;;;;11.76;59.98;100423.34;5024622;28;20045;-78
2021/05/01 08:07:53;;;;;;;11.30;8.40;;;;;;;11.80;59.65;100421.53;5023280;28;20041;-77
2021/05/01 08:10:19;;;;;;;13.30;10.15;;;;;;;11.80;60.55;100418.88;5022279;28;20085;-78
2021/05/01 08:12:45;;;;;;;10.30;7.85;;;;;;;11.98;59.60;100412.50;5021932;28;20394;-78
2021/05/01 08:15:11;;;;;;;9.40;7.45;;;;;;;12.05;58.19;100409.75;5023039;28;20084;-77
2021/05/01 08:17:40;;;;;;;12.18;7.85;;;;;;;12.17;58.14;100413.13;5024674;28;20111;-77
2021/05/01 08:20:06;;;;;;;9.35;8.00;;;;;;;12.19;57.42;100406.91;5023172;28;20034;-77
2021/05/01 08:22:32;;;;;;;9.68;8.60;;;;;;;12.56;57.58;100406.34;5037164;28;20037;-78
2021/05/01 08:24:57;;;;;;;11.82;10.15;;;;;;;12.86;55.40;100401.41;5022739;28;20489;-77
2021/05/01 08:27:23;;;;;;;8.05;7.25;;;;;;;13.09;55.12;100401.88;5025344;28;20517;-78
2021/05/01 08:29:48;;;;;;;8.75;6.47;;;;;;;13.37;54.96;100406.69;5024540;28;20061;-78
2021/05/01 08:32:17;;;;;;;8.20;6.45;;;;;;;13.61;54.33;100399.16;5021260;28;20405;-77
2021/05/01 08:34:43;;;;;;;8.45;7.20;;;;;;;13.72;54.18;100399.78;5021935;28;20056;-78
2021/05/01 08:37:09;;;;;;;10.38;7.95;;;;;;;13.91;53.43;100392.28;5023570;28;20037;-77
2021/05/01 08:39:35;;;;;;;9.30;7.80;;;;;;;14.10;52.15;100391.00;5023924;28;20033;-77
2021/05/01 08:42:00;;;;;;;10.25;7.72;;;;;;;14.12;51.08;100389.19;5020178;28;20096;-77
2021/05/01 08:44:26;;;;;;;8.70;7.15;;;;;;;14.08;51.57;100389.28;5021356;28;20124;-78
2021/05/01 08:46:51;;;;;;;8.38;6.15;;;;;;;14.17;52.42;100383.75;5024055;28;20065;-77
2021/05/01 08:49:17;;;;;;;10.05;7.20;;;;;;;14.30;51.53;100390.50;5021824;28;20652;-77
2021/05/01 08:51:44;;;;;;;10.27;7.32;;;;;;;13.99;50.50;100377.97;5021955;28;20120;-78
2021/05/01 08:54:12;;;;;;;9.23;8.20;;;;;;;13.85;51.41;100373.88;5023785;28;20516;-77
2021/05/01 08:56:39;;;;;;;9.60;7.72;;;;;;;13.74;50.64;100385.59;5022933;28;20037;-78
2021/05/01 08:59:04;;;;;;;9.02;6.68;;;;;;;13.34;51.52;100383.78;5019891;28;20038;-78
2021/05/01 09:01:30;;;;;;;15.88;13.27;;;;;;;13.30;52.96;100383.84;5022771;28;20485;-78
2021/05/01 09:03:55;;;;;;;14.93;13.30;;;;;;;13.52;53.58;100386.97;5023260;28;20095;-77
2021/05/01 09:06:23;;;;;;;8.35;7.00;;;;;;;13.61;51.09;100389.41;5020681;28;20053;-77
2021/05/01 09:09:18;;;;;;;11.95;10.43;;;;;;;13.52;52.44;100389.63;5020766;28;20046;-77
2021/05/01 09:11:45;;;;;;;9.13;7.22;;;;;;;13.48;50.41;100388.78;5023075;28;20045;-77
2021/05/01 09:14:19;;;;;;;11.13;6.95;;;;;;;13.28;51.33;100389.19;5022305;28;20049;-77
2021/05/01 09:16:59;;;;;;;10.88;8.48;;;;;;;13.50;52.18;100386.97;5021172;28;20121;-78
2021/05/01 09:19:43;;;;;;;12.82;10.52;;;;;;;13.74;50.83;100398.84;5019574;28;20117;-77
2021/05/01 09:22:13;;;;;;;17.52;14.77;;;;;;;14.14;50.33;100394.44;5020830;28;20037;-78
2021/05/01 09:24:42;;;;;;;12.82;9.40;;;;;;;14.51;49.37;100388.25;5021307;28;20026;-78
2021/05/01 09:27:07;;;;;;;13.18;11.40;;;;;;;14.93;49.01;100388.97;5019902;28;20060;-77
2021/05/01 09:29:35;;;;;;;11.65;8.48;;;;;;;15.29;47.91;100372.94;5021489;28;20041;-78
2021/05/01 09:32:03;;;;;;;8.65;7.50;;;;;;;15.51;46.65;100370.53;5022741;28;20045;-77
2021/05/01 09:34:42;;;;;;;6.68;5.32;;;;;;;15.87;46.21;100365.09;5017504;28;20072;-78
2021/05/01 09:37:07;;;;;;;8.48;6.50;;;;;;;16.25;45.88;100353.25;5021656;28;20121;-78
2021/05/01 09:39:33;;;;;;;8.85;6.75;;;;;;;16.41;45.12;100350.94;5019385;28;20549;-78
2021/05/01 09:42:12;;;;;;;7.93;5.60;;;;;;;16.50;44.42;100355.94;5020434;28;20037;-78
2021/05/01 09:44:38;;;;;;;8.68;5.70;;;;;;;16.62;43.31;100352.03;5019305;28;20409;-77
2021/05/01 09:47:03;;;;;;;9.40;5.72;;;;;;;16.71;44.23;100358.81;5021772;28;20036;-77
2021/05/01 09:49:29;;;;;;;7.07;5.70;;;;;;;16.72;43.26;100358.78;5022828;28;20140;-77
2021/05/01 09:52:09;;;;;;;6.75;5.47;;;;;;;15.61;44.35;100358.72;5020449;28;20030;-77
2021/05/01 09:54:37;;;;;;;6.60;5.40;;;;;;;14.88;44.87;100359.88;5020536;28;20606;-78
2021/05/01 09:57:10;;;;;;;6.75;5.25;;;;;;;14.42;47.41;100352.19;5021126;28;20042;-77
2021/05/01 09:59:50;;;;;;;6.70;5.50;;;;;;;14.63;46.95;100351.69;5020690;28;20037;-76
2021/05/01 10:02:17;;;;;;;5.82;4.97;;;;;;;14.87;46.33;100359.91;5020266;28;20103;-77
2021/05/01 10:05:04;;;;;;;7.03;5.57;;;;;;;14.93;44.78;100358.88;5019679;28;20041;-77
2021/05/01 10:07:30;;;;;;;7.15;5.75;;;;;;;14.71;46.53;100359.44;5022576;28;20108;-77
2021/05/01 10:09:57;;;;;;;7.75;6.10;;;;;;;14.45;45.80;100346.81;5035467;28;20397;-77
2021/05/01 10:12:36;;;;;;;6.53;5.13;;;;;;;14.54;45.73;100356.34;5020627;28;20049;-77
2021/05/01 10:15:13;;;;;;;6.60;4.38;;;;;;;14.64;45.91;100360.50;5021589;28;20119;-77
2021/05/01 10:17:38;;;;;;;6.72;4.35;;;;;;;14.85;45.31;100356.44;5020635;28;20379;-77
2021/05/01 10:20:07;;;;;;;5.28;4.53;;;;;;;15.07;45.25;100354.94;5019399;28;20036;-77
2021/05/01 10:22:37;;;;;;;6.35;4.93;;;;;;;14.97;45.87;100357.91;5018734;28;20120;-77
2021/05/01 10:25:11;;;;;;;7.78;5.30;;;;;;;14.95;44.67;100357.06;5020294;28;20050;-77
2021/05/01 10:27:49;;;;;;;6.38;4.55;;;;;;;15.06;45.45;100360.28;5021045;28;20564;-77
2021/05/01 10:32:55;;;;;;;6.15;5.00;;;;;;;15.21;45.18;100362.53;5019634;28;20030;-77
2021/05/01 10:35:22;;;;;;;6.80;5.50;;;;;;;15.29;45.37;100341.91;5020820;28;20038;-77
2021/05/01 10:37:55;;;;;;;8.48;5.78;;;;;;;15.27;44.26;100353.50;5021060;28;20504;-77
2021/05/01 10:40:21;;;;;;;;;;;;;;;15.53;44.61;100344.78;5017940;28;20160;-77
2021/05/01 10:43:06;;;;;;;6.95;5.47;;;;;;;15.84;44.84;100343.88;5022073;28;19909;-77
2021/05/01 10:45:31;;;;;;;4.72;3.50;;;;;;;16.74;44.17;100338.28;5023412;28;20040;-76
2021/05/01 10:48:25;;;;;;;5.95;4.72;;;;;;;17.51;40.93;100341.72;5020833;28;20021;-77
2021/05/01 10:51:03;;;;;;;5.65;4.28;;;;;;;18.07;40.93;100350.28;5018361;28;20052;-77
2021/05/01 10:53:28;;;;;;;6.10;4.40;;;;;;;18.48;40.79;100340.59;5021909;28;20436;-78
2021/05/01 10:55:55;;;;;;;5.65;4.38;;;;;;;18.57;39.40;100345.53;5015779;28;20120;-77
2021/05/01 10:58:39;;;;;;;6.07;4.63;;;;;;;17.92;39.05;100343.75;5021598;28;20029;-77
2021/05/01 11:01:29;;;;;;;5.20;3.92;;;;;;;18.06;39.62;100344.09;5021718;28;20029;-78
2021/05/01 11:03:58;;;;;;;5.22;3.97;;;;;;;18.19;39.50;100339.13;5017065;28;20041;-77
2021/05/01 11:06:26;;;;;;;5.85;4.78;;;;;;;18.15;39.69;100326.81;5021200;28;20064;-77
2021/05/01 11:09:08;;;;;;;6.80;4.78;;;;;;;18.02;39.41;100333.56;5020087;28;20125;-78
2021/05/01 11:11:38;;;;;;;4.82;3.70;;;;;;;18.01;40.18;100332.72;5019634;28;20134;-77
2021/05/01 11:14:27;;;;;;;5.00;3.80;;;;;;;18.13;39.58;100334.00;5003131;28;20042;-77
2021/05/01 11:17:02;;;;;;;4.95;3.67;;;;;;;18.20;38.03;100340.84;5022221;28;20470;-77
2021/05/01 11:19:29;;;;;;;4.55;3.50;;;;;;;18.27;39.36;100349.50;5020752;28;20120;-77
2021/05/01 11:21:57;;;;;;;5.57;4.10;;;;;;;18.05;37.99;100346.81;5018237;28;20038;-77
2021/05/01 11:24:23;;;;;;;4.78;3.70;;;;;;;17.81;38.51;100344.16;5036421;28;20073;-77